sensor_id;sensor_type;location;lat;lon;timestamp;pressure;altitude;pressure_sealevel;temperature;humidity
58979;BME280;44763;50.464;30.612;2022-08-02T00:00:15;99813.55;;;22.54;68.90
58979;BME280;44763;50.464;30.612;2022-08-02T00:02:43;99815.47;;;22.54;68.85
58979;BME280;44763;50.464;30.612;2022-08-02T00:05:11;99807.85;;;22.56;68.87
58979;BME280;44763;50.464;30.612;2022-08-02T00:07:39;99812.76;;;22.57;68.82
58979;BME280;44763;50.464;30.612;2022-08-02T00:10:08;99809.48;;;22.57;68.93
58979;BME280;44763;50.464;30.612;2022-08-02T00:12:37;99801.06;;;22.56;68.97
58979;BME280;44763;50.464;30.612;2022-08-02T00:15:08;99803.25;;;22.57;69.00
58979;BME280;44763;50.464;30.612;2022-08-02T00:17:37;99799.98;;;22.54;68.87
58979;BME280;44763;50.464;30.612;2022-08-02T00:20:04;99795.41;;;22.50;68.87
58979;BME280;44763;50.464;30.612;2022-08-02T00:22:32;99804.09;;;22.47;69.05
58979;BME280;44763;50.464;30.612;2022-08-02T00:24:58;99799.52;;;22.42;69.26
58979;BME280;44763;50.464;30.612;2022-08-02T00:27:24;99798.19;;;22.40;69.39
58979;BME280;44763;50.464;30.612;2022-08-02T00:29:50;99801.98;;;22.39;69.53
58979;BME280;44763;50.464;30.612;2022-08-02T00:32:17;99806.88;;;22.37;69.62
58979;BME280;44763;50.464;30.612;2022-08-02T00:34:43;99806.61;;;22.35;69.75
58979;BME280;44763;50.464;30.612;2022-08-02T00:37:09;99810.42;;;22.34;69.99
58979;BME280;44763;50.464;30.612;2022-08-02T00:39:35;99808.01;;;22.30;70.22
58979;BME280;44763;50.464;30.612;2022-08-02T00:42:02;99809.91;;;22.27;70.59
58979;BME280;44763;50.464;30.612;2022-08-02T00:44:29;99810.47;;;22.27;70.89
58979;BME280;44763;50.464;30.612;2022-08-02T00:46:56;99806.67;;;22.25;71.17
58979;BME280;44763;50.464;30.612;2022-08-02T00:49:22;99809.08;;;22.24;71.47
58979;BME280;44763;50.464;30.612;2022-08-02T00:51:48;99804.48;;;22.25;71.98
58979;BME280;44763;50.464;30.612;2022-08-02T00:54:14;99803.11;;;22.22;72.40
58979;BME280;44763;50.464;30.612;2022-08-02T00:56:40;99807.77;;;22.19;73.15
58979;BME280;44763;50.464;30.612;2022-08-02T00:59:07;99804.23;;;22.16;73.44
58979;BME280;44763;50.464;30.612;2022-08-02T01:01:33;99809.16;;;22.11;73.62
58979;BME280;44763;50.464;30.612;2022-08-02T01:04:10;99795.87;;;22.05;73.83
58979;BME280;44763;50.464;30.612;2022-08-02T01:06:40;99802.14;;;22.00;74.68
58979;BME280;44763;50.464;30.612;2022-08-02T01:09:08;99802.70;;;21.94;75.47
58979;BME280;44763;50.464;30.612;2022-08-02T01:11:35;99799.47;;;21.87;76.11
58979;BME280;44763;50.464;30.612;2022-08-02T01:14:11;99800.03;;;21.82;76.99
58979;BME280;44763;50.464;30.612;2022-08-02T01:16:42;99803.55;;;21.77;77.57
58979;BME280;44763;50.464;30.612;2022-08-02T01:19:21;99804.95;;;21.72;77.67
58979;BME280;44763;50.464;30.612;2022-08-02T01:30:53;99803.59;;;21.41;78.49
58979;BME280;44763;50.464;30.612;2022-08-02T01:33:23;99804.44;;;21.36;79.03
58979;BME280;44763;50.464;30.612;2022-08-02T01:35:54;99801.45;;;21.33;79.36
58979;BME280;44763;50.464;30.612;2022-08-02T01:38:41;99800.91;;;21.31;79.22
58979;BME280;44763;50.464;30.612;2022-08-02T01:41:09;99804.70;;;21.30;78.87
58979;BME280;44763;50.464;30.612;2022-08-02T01:43:39;99801.73;;;21.24;79.00
58979;BME280;44763;50.464;30.612;2022-08-02T01:46:08;99795.77;;;21.16;79.27
58979;BME280;44763;50.464;30.612;2022-08-02T01:48:36;99792.53;;;21.12;79.40
58979;BME280;44763;50.464;30.612;2022-08-02T01:51:05;99791.97;;;21.07;79.41
58979;BME280;44763;50.464;30.612;2022-08-02T01:53:34;99794.42;;;21.06;79.42
58979;BME280;44763;50.464;30.612;2022-08-02T01:56:02;99795.23;;;21.07;79.10
58979;BME280;44763;50.464;30.612;2022-08-02T01:58:33;99787.37;;;21.05;78.85
58979;BME280;44763;50.464;30.612;2022-08-02T02:01:03;99795.24;;;21.04;78.65
58979;BME280;44763;50.464;30.612;2022-08-02T02:03:33;99789.28;;;21.02;78.52
58979;BME280;44763;50.464;30.612;2022-08-02T02:06:01;99781.69;;;21.07;78.55
58979;BME280;44763;50.464;30.612;2022-08-02T02:08:39;99779.50;;;21.11;78.01
58979;BME280;44763;50.464;30.612;2022-08-02T02:11:03;99780.32;;;21.14;77.76
58979;BME280;44763;50.464;30.612;2022-08-02T02:13:31;99781.95;;;21.18;77.44
58979;BME280;44763;50.464;30.612;2022-08-02T02:16:00;99774.35;;;21.20;77.06
58979;BME280;44763;50.464;30.612;2022-08-02T02:18:29;99775.43;;;21.24;76.65
58979;BME280;44763;50.464;30.612;2022-08-02T02:20:57;99781.92;;;21.28;76.15
58979;BME280;44763;50.464;30.612;2022-08-02T02:23:24;99775.15;;;21.28;75.63
58979;BME280;44763;50.464;30.612;2022-08-02T02:25:52;99780.05;;;21.29;75.37
58979;BME280;44763;50.464;30.612;2022-08-02T02:28:21;99779.50;;;21.29;75.23
58979;BME280;44763;50.464;30.612;2022-08-02T02:30:54;99781.94;;;21.31;75.25
58979;BME280;44763;50.464;30.612;2022-08-02T02:33:31;99773.26;;;21.31;75.12
58979;BME280;44763;50.464;30.612;2022-08-02T02:35:59;99775.69;;;21.30;75.04
58979;BME280;44763;50.464;30.612;2022-08-02T02:38:30;99775.43;;;21.29;75.01
58979;BME280;44763;50.464;30.612;2022-08-02T02:41:00;99774.09;;;21.27;74.85
58979;BME280;44763;50.464;30.612;2022-08-02T02:43:29;99772.47;;;21.23;74.85
58979;BME280;44763;50.464;30.612;2022-08-02T02:45:58;99766.21;;;21.23;75.00
58979;BME280;44763;50.464;30.612;2022-08-02T02:48:28;99768.66;;;21.22;74.84
58979;BME280;44763;50.464;30.612;2022-08-02T02:50:55;99767.03;;;21.20;74.89
58979;BME280;44763;50.464;30.612;2022-08-02T02:53:23;99770.55;;;21.18;74.84
58979;BME280;44763;50.464;30.612;2022-08-02T02:55:52;99769.20;;;21.18;74.78
58979;BME280;44763;50.464;30.612;2022-08-02T02:58:18;99767.30;;;21.19;74.71
58979;BME280;44763;50.464;30.612;2022-08-02T03:00:45;99766.22;;;21.20;74.56
58979;BME280;44763;50.464;30.612;2022-08-02T03:03:31;99765.94;;;21.19;74.59
58979;BME280;44763;50.464;30.612;2022-08-02T03:05:57;99770.30;;;21.17;74.55
58979;BME280;44763;50.464;30.612;2022-08-02T03:08:23;99768.95;;;21.17;74.34
58979;BME280;44763;50.464;30.612;2022-08-02T03:10:50;99772.20;;;21.19;74.31
58979;BME280;44763;50.464;30.612;2022-08-02T03:13:17;99771.63;;;21.23;74.02
58979;BME280;44763;50.464;30.612;2022-08-02T03:15:45;99780.30;;;21.25;73.77
58979;BME280;44763;50.464;30.612;2022-08-02T03:18:32;99778.67;;;21.26;73.61
58979;BME280;44763;50.464;30.612;2022-08-02T03:21:05;99782.47;;;21.28;73.35
58979;BME280;44763;50.464;30.612;2022-08-02T03:23:33;99780.05;;;21.29;72.89
58979;BME280;44763;50.464;30.612;2022-08-02T03:26:00;99780.85;;;21.29;72.89
58979;BME280;44763;50.464;30.612;2022-08-02T03:28:28;99785.73;;;21.32;72.81
58979;BME280;44763;50.464;30.612;2022-08-02T03:30:54;99785.99;;;21.33;72.99
58979;BME280;44763;50.464;30.612;2022-08-02T03:33:21;99784.09;;;21.34;73.67
58979;BME280;44763;50.464;30.612;2022-08-02T03:35:50;99770.83;;;21.22;74.38
58979;BME280;44763;50.464;30.612;2022-08-02T03:38:21;99783.58;;;21.27;74.96
58979;BME280;44763;50.464;30.612;2022-08-02T03:40:49;99782.75;;;21.24;75.78
58979;BME280;44763;50.464;30.612;2022-08-02T03:43:16;99784.39;;;21.19;76.39
58979;BME280;44763;50.464;30.612;2022-08-02T03:45:48;99780.86;;;21.09;76.84
58979;BME280;44763;50.464;30.612;2022-08-02T03:48:15;99775.73;;;21.02;77.71
58979;BME280;44763;50.464;30.612;2022-08-02T03:50:42;99776.00;;;20.93;78.05
58979;BME280;44763;50.464;30.612;2022-08-02T03:53:11;99773.28;;;20.80;78.99
58979;BME280;44763;50.464;30.612;2022-08-02T03:55:39;99771.37;;;20.75;79.01
58979;BME280;44763;50.464;30.612;2022-08-02T03:58:05;99775.16;;;20.69;79.82
58979;BME280;44763;50.464;30.612;2022-08-02T04:00:32;99777.59;;;20.63;79.53
58979;BME280;44763;50.464;30.612;2022-08-02T04:02:59;99768.08;;;20.55;79.67
58979;BME280;44763;50.464;30.612;2022-08-02T04:05:25;99771.31;;;20.52;80.32
58979;BME280;44763;50.464;30.612;2022-08-02T04:07:52;99770.22;;;20.51;80.43
58979;BME280;44763;50.464;30.612;2022-08-02T04:10:18;99768.87;;;20.51;80.72
58979;BME280;44763;50.464;30.612;2022-08-02T04:12:45;99776.45;;;20.49;80.83
58979;BME280;44763;50.464;30.612;2022-08-02T04:15:12;99776.19;;;20.48;80.75
58979;BME280;44763;50.464;30.612;2022-08-02T04:17:52;99772.65;;;20.47;81.34
58979;BME280;44763;50.464;30.612;2022-08-02T04:20:26;99775.65;;;20.46;80.97
58979;BME280;44763;50.464;30.612;2022-08-02T04:22:59;99777.53;;;20.42;81.75
58979;BME280;44763;50.464;30.612;2022-08-02T04:25:26;99784.55;;;20.41;80.79
58979;BME280;44763;50.464;30.612;2022-08-02T04:27:53;99798.34;;;20.39;79.45
58979;BME280;44763;50.464;30.612;2022-08-02T04:30:20;99811.88;;;20.39;78.87
58979;BME280;44763;50.464;30.612;2022-08-02T04:32:46;99809.44;;;20.33;79.97
58979;BME280;44763;50.464;30.612;2022-08-02T04:35:12;99819.98;;;20.29;80.59
58979;BME280;44763;50.464;30.612;2022-08-02T04:37:39;99820.47;;;20.21;81.14
58979;BME280;44763;50.464;30.612;2022-08-02T04:40:10;99813.94;;;20.09;81.24
58979;BME280;44763;50.464;30.612;2022-08-02T04:42:38;99822.57;;;20.01;81.46
58979;BME280;44763;50.464;30.612;2022-08-02T04:45:06;99817.94;;;19.96;81.88
58979;BME280;44763;50.464;30.612;2022-08-02T04:47:34;99820.34;;;19.93;81.81
58979;BME280;44763;50.464;30.612;2022-08-02T04:50:00;99818.45;;;19.91;83.00
58979;BME280;44763;50.464;30.612;2022-08-02T04:52:26;99821.66;;;19.85;82.14
58979;BME280;44763;50.464;30.612;2022-08-02T04:54:52;99824.08;;;19.81;83.57
58979;BME280;44763;50.464;30.612;2022-08-02T04:57:19;99818.95;;;19.80;83.98
58979;BME280;44763;50.464;30.612;2022-08-02T05:00:06;99818.66;;;19.76;83.99
58979;BME280;44763;50.464;30.612;2022-08-02T05:02:34;99823.23;;;19.76;83.25
58979;BME280;44763;50.464;30.612;2022-08-02T05:05:01;99826.22;;;19.77;83.70
58979;BME280;44763;50.464;30.612;2022-08-02T05:07:28;99823.45;;;19.72;84.01
58979;BME280;44763;50.464;30.612;2022-08-02T05:09:54;99819.90;;;19.63;84.47
58979;BME280;44763;50.464;30.612;2022-08-02T05:12:21;99821.20;;;19.58;84.50
58979;BME280;44763;50.464;30.612;2022-08-02T05:14:49;99831.21;;;19.55;85.40
58979;BME280;44763;50.464;30.612;2022-08-02T05:17:15;99826.30;;;19.50;85.66
58979;BME280;44763;50.464;30.612;2022-08-02T05:19:41;99820.05;;;19.47;86.64
58979;BME280;44763;50.464;30.612;2022-08-02T05:22:07;99825.96;;;19.41;87.73
58979;BME280;44763;50.464;30.612;2022-08-02T05:24:34;99826.16;;;19.32;88.21
58979;BME280;44763;50.464;30.612;2022-08-02T05:29:09;99824.52;;;19.31;89.05
58979;BME280;44763;50.464;30.612;2022-08-02T05:31:36;99824.75;;;19.24;89.14
58979;BME280;44763;50.464;30.612;2022-08-02T05:34:02;99833.11;;;19.22;89.84
58979;BME280;44763;50.464;30.612;2022-08-02T05:36:28;99835.26;;;19.20;90.12
58979;BME280;44763;50.464;30.612;2022-08-02T05:38:55;99841.45;;;19.18;89.99
58979;BME280;44763;50.464;30.612;2022-08-02T05:41:25;99832.79;;;19.14;90.51
58979;BME280;44763;50.464;30.612;2022-08-02T05:43:51;99833.06;;;19.17;90.37
58979;BME280;44763;50.464;30.612;2022-08-02T05:46:17;99837.70;;;19.22;89.03
58979;BME280;44763;50.464;30.612;2022-08-02T05:48:43;99840.66;;;19.18;89.01
58979;BME280;44763;50.464;30.612;2022-08-02T05:51:19;99837.41;;;19.18;89.34
58979;BME280;44763;50.464;30.612;2022-08-02T05:59:05;99836.92;;;19.26;90.38
58979;BME280;44763;50.464;30.612;2022-08-02T06:01:55;99835.33;;;19.31;91.63
58979;BME280;44763;50.464;30.612;2022-08-02T06:04:26;99837.02;;;19.37;92.38
58979;BME280;44763;50.464;30.612;2022-08-02T06:06:56;99833.23;;;19.38;92.90
58979;BME280;44763;50.464;30.612;2022-08-02T06:09:27;99838.12;;;19.41;93.67
58979;BME280;44763;50.464;30.612;2022-08-02T06:11:56;99840.87;;;19.46;93.20
58979;BME280;44763;50.464;30.612;2022-08-02T06:14:24;99847.09;;;19.49;92.31
58979;BME280;44763;50.464;30.612;2022-08-02T06:16:50;99844.14;;;19.53;92.07
58979;BME280;44763;50.464;30.612;2022-08-02T06:19:18;99846.38;;;19.61;92.00
58979;BME280;44763;50.464;30.612;2022-08-02T06:21:45;99837.55;;;19.74;91.34
58979;BME280;44763;50.464;30.612;2022-08-02T06:24:16;99833.83;;;19.80;91.16
58979;BME280;44763;50.464;30.612;2022-08-02T06:26:43;99832.19;;;19.81;91.92
58979;BME280;44763;50.464;30.612;2022-08-02T06:29:11;99830.03;;;19.81;91.47
58979;BME280;44763;50.464;30.612;2022-08-02T06:31:40;99821.91;;;19.78;91.83
58979;BME280;44763;50.464;30.612;2022-08-02T06:34:07;99789.86;;;19.57;92.52
58979;BME280;44763;50.464;30.612;2022-08-02T06:39:20;99817.64;;;19.88;93.17
58979;BME280;44763;50.464;30.612;2022-08-02T06:41:57;99810.87;;;19.90;93.60
58979;BME280;44763;50.464;30.612;2022-08-02T06:44:26;99812.52;;;19.96;93.40
58979;BME280;44763;50.464;30.612;2022-08-02T06:46:52;99810.11;;;19.97;94.22
58979;BME280;44763;50.464;30.612;2022-08-02T06:49:18;99813.36;;;19.99;94.80
58979;BME280;44763;50.464;30.612;2022-08-02T06:51:44;99807.66;;;19.98;93.81
58979;BME280;44763;50.464;30.612;2022-08-02T06:54:11;99807.41;;;19.97;93.59
58979;BME280;44763;50.464;30.612;2022-08-02T06:56:37;99807.95;;;19.97;93.06
58979;BME280;44763;50.464;30.612;2022-08-02T06:59:03;99801.45;;;19.95;92.70
58979;BME280;44763;50.464;30.612;2022-08-02T07:01:29;99801.45;;;19.95;92.62
58979;BME280;44763;50.464;30.612;2022-08-02T07:03:56;99798.70;;;19.90;91.83
58979;BME280;44763;50.464;30.612;2022-08-02T07:06:22;99798.73;;;19.95;91.75
58979;BME280;44763;50.464;30.612;2022-08-02T07:08:48;99807.69;;;20.01;91.78
58979;BME280;44763;50.464;30.612;2022-08-02T07:11:15;99806.05;;;20.00;91.54
58979;BME280;44763;50.464;30.612;2022-08-02T07:13:42;99818.48;;;19.96;91.61
58979;BME280;44763;50.464;30.612;2022-08-02T07:16:08;99818.45;;;19.91;91.91
58979;BME280;44763;50.464;30.612;2022-08-02T07:18:36;99820.09;;;19.94;92.30
58979;BME280;44763;50.464;30.612;2022-08-02T07:21:02;99828.78;;;20.01;91.94
58979;BME280;44763;50.464;30.612;2022-08-02T07:23:31;99831.78;;;20.02;91.90
58979;BME280;44763;50.464;30.612;2022-08-02T07:25:59;99834.45;;;19.97;92.96
58979;BME280;44763;50.464;30.612;2022-08-02T07:28:26;99837.12;;;19.92;92.96
58979;BME280;44763;50.464;30.612;2022-08-02T07:30:53;99831.13;;;19.85;93.39
58979;BME280;44763;50.464;30.612;2022-08-02T07:33:19;99836.53;;;19.80;93.37
58979;BME280;44763;50.464;30.612;2022-08-02T07:35:45;99839.23;;;19.82;93.43
58979;BME280;44763;50.464;30.612;2022-08-02T07:38:11;99840.30;;;19.79;93.01
58979;BME280;44763;50.464;30.612;2022-08-02T07:40:40;99852.50;;;19.84;92.61
58979;BME280;44763;50.464;30.612;2022-08-02T07:43:15;99847.31;;;19.77;92.39
58979;BME280;44763;50.464;30.612;2022-08-02T07:45:41;99858.92;;;19.75;92.67
58979;BME280;44763;50.464;30.612;2022-08-02T07:48:09;99857.57;;;19.73;92.62
58979;BME280;44763;50.464;30.612;2022-08-02T07:50:35;99864.26;;;19.68;92.58
58979;BME280;44763;50.464;30.612;2022-08-02T07:53:04;99870.97;;;19.62;92.73
58979;BME280;44763;50.464;30.612;2022-08-02T07:55:30;99878.02;;;19.61;92.73
58979;BME280;44763;50.464;30.612;2022-08-02T07:57:56;99877.05;;;19.72;93.26
58979;BME280;44763;50.464;30.612;2022-08-02T08:00:22;99876.80;;;19.79;92.93
58979;BME280;44763;50.464;30.612;2022-08-02T08:02:48;99876.43;;;19.70;93.68
58979;BME280;44763;50.464;30.612;2022-08-02T08:05:14;99878.53;;;19.60;94.26
58979;BME280;44763;50.464;30.612;2022-08-02T08:07:42;99879.02;;;19.50;95.38
58979;BME280;44763;50.464;30.612;2022-08-02T08:10:09;99888.69;;;19.45;96.15
58979;BME280;44763;50.464;30.612;2022-08-02T08:12:36;99885.42;;;19.41;96.65
58979;BME280;44763;50.464;30.612;2022-08-02T08:15:04;99878.91;;;19.37;97.51
58979;BME280;44763;50.464;30.612;2022-08-02T08:17:31;99882.11;;;19.34;97.69
58979;BME280;44763;50.464;30.612;2022-08-02T08:19:57;99879.40;;;19.31;98.05
58979;BME280;44763;50.464;30.612;2022-08-02T08:22:23;99868.61;;;19.36;99.50
58979;BME280;44763;50.464;30.612;2022-08-02T08:24:50;99873.30;;;19.46;99.45
58979;BME280;44763;50.464;30.612;2022-08-02T08:27:16;99867.34;;;19.44;99.08
58979;BME280;44763;50.464;30.612;2022-08-02T08:29:43;99864.11;;;19.47;98.97
58979;BME280;44763;50.464;30.612;2022-08-02T08:32:10;99864.40;;;19.48;98.83
58979;BME280;44763;50.464;30.612;2022-08-02T08:34:36;99857.11;;;19.51;98.84
58979;BME280;44763;50.464;30.612;2022-08-02T08:37:02;99863.06;;;19.53;98.78
58979;BME280;44763;50.464;30.612;2022-08-02T08:39:29;99863.59;;;19.50;98.70
58979;BME280;44763;50.464;30.612;2022-08-02T08:41:55;99866.00;;;19.44;99.29
58979;BME280;44763;50.464;30.612;2022-08-02T08:44:22;99868.95;;;19.45;100.00
58979;BME280;44763;50.464;30.612;2022-08-02T08:46:48;99868.95;;;19.45;100.00
58979;BME280;44763;50.464;30.612;2022-08-02T08:49:30;99867.91;;;19.49;100.00
58979;BME280;44763;50.464;30.612;2022-08-02T08:51:53;99874.38;;;19.48;100.00
58979;BME280;44763;50.464;30.612;2022-08-02T08:54:23;99880.08;;;19.51;100.00
58979;BME280;44763;50.464;30.612;2022-08-02T08:56:51;99890.34;;;19.49;100.00
58979;BME280;44763;50.464;30.612;2022-08-02T08:59:19;99885.48;;;19.49;100.00
58979;BME280;44763;50.464;30.612;2022-08-02T09:01:45;99895.74;;;19.49;100.00
58979;BME280;44763;50.464;30.612;2022-08-02T09:04:11;99898.44;;;19.47;100.00
58979;BME280;44763;50.464;30.612;2022-08-02T09:06:38;99896.23;;;19.41;100.00
58979;BME280;44763;50.464;30.612;2022-08-02T09:09:05;99902.17;;;19.40;100.00
58979;BME280;44763;50.464;30.612;2022-08-02T09:11:31;99901.09;;;19.41;100.00
58979;BME280;44763;50.464;30.612;2022-08-02T09:14:01;99898.64;;;19.40;100.00
58979;BME280;44763;50.464;30.612;2022-08-02T09:16:33;99901.34;;;19.40;100.00
58979;BME280;44763;50.464;30.612;2022-08-02T09:19:16;99893.22;;;19.37;100.00
58979;BME280;44763;50.464;30.612;2022-08-02T09:21:49;99898.06;;;19.33;100.00
58979;BME280;44763;50.464;30.612;2022-08-02T09:24:27;99899.11;;;19.29;100.00
58979;BME280;44763;50.464;30.612;2022-08-02T09:26:53;99899.06;;;19.26;100.00
58979;BME280;44763;50.464;30.612;2022-08-02T09:29:21;99895.02;;;19.26;100.00
58979;BME280;44763;50.464;30.612;2022-08-02T09:31:49;99887.14;;;19.22;100.00
58979;BME280;44763;50.464;30.612;2022-08-02T09:34:16;99881.74;;;19.22;100.00
58979;BME280;44763;50.464;30.612;2022-08-02T09:36:45;99885.00;;;19.24;100.00
58979;BME280;44763;50.464;30.612;2022-08-02T09:39:13;99894.75;;;19.25;100.00
58979;BME280;44763;50.464;30.612;2022-08-02T09:41:42;99886.09;;;19.23;100.00
58979;BME280;44763;50.464;30.612;2022-08-02T09:44:12;99888.79;;;19.23;100.00
58979;BME280;44763;50.464;30.612;2022-08-02T09:46:41;99893.66;;;19.24;100.00
58979;BME280;44763;50.464;30.612;2022-08-02T09:49:13;99896.35;;;19.24;100.00
58979;BME280;44763;50.464;30.612;2022-08-02T09:51:54;99893.36;;;19.23;100.00
58979;BME280;44763;50.464;30.612;2022-08-02T09:54:21;99895.80;;;19.22;100.00
58979;BME280;44763;50.464;30.612;2022-08-02T09:56:52;99900.09;;;19.20;100.00
58979;BME280;44763;50.464;30.612;2022-08-02T09:59:20;99898.75;;;19.20;100.00
58979;BME280;44763;50.464;30.612;2022-08-02T10:01:50;99904.44;;;19.21;100.00
58979;BME280;44763;50.464;30.612;2022-08-02T10:04:22;99904.44;;;19.21;100.00
58979;BME280;44763;50.464;30.612;2022-08-02T10:06:52;99902.00;;;19.22;100.00
58979;BME280;44763;50.464;30.612;2022-08-02T10:09:20;99903.12;;;19.26;100.00
58979;BME280;44763;50.464;30.612;2022-08-02T10:11:47;99902.63;;;19.32;100.00
58979;BME280;44763;50.464;30.612;2022-08-02T10:14:14;99906.75;;;19.40;100.00
58979;BME280;44763;50.464;30.612;2022-08-02T10:16:42;99913.06;;;19.51;100.00
58979;BME280;44763;50.464;30.612;2022-08-02T10:19:10;99911.51;;;19.57;100.00
58979;BME280;44763;50.464;30.612;2022-08-02T10:24:20;99903.97;;;19.64;100.00
58979;BME280;44763;50.464;30.612;2022-08-02T10:26:45;99904.25;;;19.63;100.00
58979;BME280;44763;50.464;30.612;2022-08-02T10:29:17;99910.72;;;19.64;100.00
58979;BME280;44763;50.464;30.612;2022-08-02T10:32:15;99907.80;;;19.69;100.00
58979;BME280;44763;50.464;30.612;2022-08-02T10:34:52;99908.87;;;19.68;100.00
58979;BME280;44763;50.464;30.612;2022-08-02T10:37:22;99905.05;;;19.61;100.00
58979;BME280;44763;50.464;30.612;2022-08-02T10:39:56;99900.40;;;19.56;100.00
58979;BME280;44763;50.464;30.612;2022-08-02T10:42:47;99902.54;;;19.52;98.30
58979;BME280;44763;50.464;30.612;2022-08-02T10:45:21;99902.49;;;19.47;98.10
58979;BME280;44763;50.464;30.612;2022-08-02T10:53:26;99902.14;;;19.38;99.62
58979;BME280;44763;50.464;30.612;2022-08-02T10:55:57;99909.42;;;19.35;99.84
58979;BME280;44763;50.464;30.612;2022-08-02T10:58:26;99908.58;;;19.32;100.00
58979;BME280;44763;50.464;30.612;2022-08-02T11:00:57;99907.77;;;19.31;99.90
58979;BME280;44763;50.464;30.612;2022-08-02T11:06:09;99915.81;;;19.23;99.01
58979;BME280;44763;50.464;30.612;2022-08-02T11:08:37;99920.05;;;19.17;96.85
58979;BME280;44763;50.464;30.612;2022-08-02T11:11:15;99923.77;;;19.08;97.20
58979;BME280;44763;50.464;30.612;2022-08-02T11:14:04;99921.83;;;19.06;97.12
58979;BME280;44763;50.464;30.612;2022-08-02T11:19:27;99930.63;;;18.94;99.00
58979;BME280;44763;50.464;30.612;2022-08-02T11:22:03;99934.05;;;18.86;99.94
58979;BME280;44763;50.464;30.612;2022-08-02T11:24:33;99926.98;;;18.80;100.00
58979;BME280;44763;50.464;30.612;2022-08-02T11:27:02;99930.94;;;18.78;100.00
58979;BME280;44763;50.464;30.612;2022-08-02T11:29:35;99926.88;;;18.75;100.00
58979;BME280;44763;50.464;30.612;2022-08-02T11:32:17;99932.57;;;18.76;100.00
58979;BME280;44763;50.464;30.612;2022-08-02T11:34:49;99926.88;;;18.75;100.00
58979;BME280;44763;50.464;30.612;2022-08-02T11:37:35;99930.70;;;18.79;100.00
58979;BME280;44763;50.464;30.612;2022-08-02T11:40:05;99941.03;;;18.82;100.00
58979;BME280;44763;50.464;30.612;2022-08-02T11:42:37;99923.19;;;18.81;100.00
58979;BME280;44763;50.464;30.612;2022-08-02T11:45:08;99922.40;;;18.83;100.00
58979;BME280;44763;50.464;30.612;2022-08-02T11:47:46;99917.87;;;18.89;100.00
58979;BME280;44763;50.464;30.612;2022-08-02T11:50:15;99919.81;;;18.91;100.00
58979;BME280;44763;50.464;30.612;2022-08-02T11:52:42;99920.63;;;18.94;100.00
58979;BME280;44763;50.464;30.612;2022-08-02T11:55:09;99916.89;;;18.98;100.00
58979;BME280;44763;50.464;30.612;2022-08-02T11:57:37;99926.89;;;18.97;100.00
58979;BME280;44763;50.464;30.612;2022-08-02T12:00:16;99914.42;;;18.94;100.00
58979;BME280;44763;50.464;30.612;2022-08-02T12:02:46;99914.69;;;18.95;100.00
58979;BME280;44763;50.464;30.612;2022-08-02T12:05:18;99908.80;;;18.98;100.00
58979;BME280;44763;50.464;30.612;2022-08-02T12:07:46;99904.48;;;18.97;100.00
58979;BME280;44763;50.464;30.612;2022-08-02T12:10:15;99904.51;;;19.02;100.00
58979;BME280;44763;50.464;30.612;2022-08-02T12:12:54;99911.55;;;19.03;100.00
58979;BME280;44763;50.464;30.612;2022-08-02T12:20:59;99907.34;;;19.15;100.00
58979;BME280;44763;50.464;30.612;2022-08-02T12:23:26;99904.39;;;19.16;98.59
58979;BME280;44763;50.464;30.612;2022-08-02T12:26:04;99901.95;;;19.17;98.37
58979;BME280;44763;50.464;30.612;2022-08-02T12:28:36;99903.89;;;19.19;98.92
58979;BME280;44763;50.464;30.612;2022-08-02T12:31:07;99903.36;;;19.22;99.49
58979;BME280;44763;50.464;30.612;2022-08-02T12:33:47;99906.36;;;19.26;100.00
58979;BME280;44763;50.464;30.612;2022-08-02T12:36:19;99903.97;;;19.30;98.62
58979;BME280;44763;50.464;30.612;2022-08-02T12:38:56;99909.14;;;19.36;98.33
58979;BME280;44763;50.464;30.612;2022-08-02T12:41:23;99905.14;;;19.41;97.45
58979;BME280;44763;50.464;30.612;2022-08-02T12:43:51;99901.13;;;19.44;98.34
58979;BME280;44763;50.464;30.612;2022-08-02T12:46:19;99909.75;;;19.43;95.55
58979;BME280;44763;50.464;30.612;2022-08-02T12:48:47;99903.28;;;19.44;95.30
58979;BME280;44763;50.464;30.612;2022-08-02T12:51:23;99907.09;;;19.46;96.06
58979;BME280;44763;50.464;30.612;2022-08-02T12:53:52;99902.50;;;19.49;96.54
58979;BME280;44763;50.464;30.612;2022-08-02T12:56:30;99899.34;;;19.57;96.81
58979;BME280;44763;50.464;30.612;2022-08-02T12:58:58;99890.94;;;19.56;96.62
58979;BME280;44763;50.464;30.612;2022-08-02T13:01:25;99882.28;;;19.57;96.77
58979;BME280;44763;50.464;30.612;2022-08-02T13:03:53;99836.96;;;19.29;96.52
58979;BME280;44763;50.464;30.612;2022-08-02T13:06:20;99892.84;;;19.58;95.56
58979;BME280;44763;50.464;30.612;2022-08-02T13:08:47;99893.94;;;19.60;95.74
58979;BME280;44763;50.464;30.612;2022-08-02T13:11:14;99892.04;;;19.58;93.71
58979;BME280;44763;50.464;30.612;2022-08-02T13:13:41;99897.70;;;19.59;93.81
58979;BME280;44763;50.464;30.612;2022-08-02T13:16:10;99894.23;;;19.61;94.36
58979;BME280;44763;50.464;30.612;2022-08-02T13:18:37;99898.30;;;19.63;94.14
58979;BME280;44763;50.464;30.612;2022-08-02T13:21:04;99898.31;;;19.66;94.59
58979;BME280;44763;50.464;30.612;2022-08-02T13:23:33;99897.50;;;19.65;95.45
58979;BME280;44763;50.464;30.612;2022-08-02T13:26:00;99900.75;;;19.65;96.01
58979;BME280;44763;50.464;30.612;2022-08-02T13:28:27;99899.65;;;19.63;96.49
58979;BME280;44763;50.464;30.612;2022-08-02T13:30:53;99899.66;;;19.66;96.42
58979;BME280;44763;50.464;30.612;2022-08-02T13:33:19;99906.45;;;19.69;96.67
58979;BME280;44763;50.464;30.612;2022-08-02T13:35:47;99909.37;;;19.64;96.59